createdAt,value
2023-01-11T00:00:08.595Z,9.463140
2023-01-11T00:01:08.713Z,9.463130
2023-01-11T00:02:08.672Z,9.463109
2023-01-11T00:03:08.583Z,9.462969
2023-01-11T00:04:08.529Z,9.462924
2023-01-11T00:05:08.820Z,9.462931
2023-01-11T00:06:08.677Z,9.462930
2023-01-11T00:07:08.513Z,9.462973
2023-01-11T00:08:08.726Z,9.462900
2023-01-11T00:09:08.577Z,9.462961
2023-01-11T00:10:08.518Z,9.462963
2023-01-11T00:11:08.473Z,9.463053
2023-01-11T00:12:08.553Z,9.463051
2023-01-11T00:13:08.491Z,9.462977
2023-01-11T00:14:08.691Z,9.463053
2023-01-11T00:15:08.420Z,9.463145
2023-01-11T00:16:08.825Z,9.463054
2023-01-11T00:17:08.619Z,9.463376
2023-01-11T00:18:08.423Z,9.463032
2023-01-11T00:19:08.488Z,9.462892
2023-01-11T00:20:08.412Z,9.462958
2023-01-11T00:21:08.439Z,9.463047
2023-01-11T00:22:08.595Z,9.463128
2023-01-11T00:23:08.524Z,9.462956
2023-01-11T00:24:08.534Z,9.463052
2023-01-11T00:25:08.347Z,9.462842
2023-01-11T00:26:08.599Z,9.462780
2023-01-11T00:27:08.372Z,9.462768
2023-01-11T00:28:08.458Z,9.462788
2023-01-11T00:29:08.899Z,9.462858
2023-01-11T00:30:08.526Z,9.463202
2023-01-11T00:31:08.911Z,9.463108
2023-01-11T00:32:08.344Z,9.462834
2023-01-11T00:33:08.330Z,9.463049
2023-01-11T00:34:08.351Z,9.463046
2023-01-11T00:35:08.418Z,9.462960
2023-01-11T00:36:08.396Z,9.463036
2023-01-11T00:37:08.308Z,9.463007
2023-01-11T00:38:08.425Z,9.462943
2023-01-11T00:39:08.621Z,9.463035
2023-01-11T00:40:08.384Z,9.463026
2023-01-11T00:41:08.267Z,9.463008
2023-01-11T00:42:08.291Z,9.462952
2023-01-11T00:43:08.791Z,9.462996
2023-01-11T00:44:08.322Z,9.462996
2023-01-11T00:45:08.729Z,9.462945
2023-01-11T00:46:08.476Z,9.462990
2023-01-11T00:47:08.314Z,9.462795
2023-01-11T00:48:08.290Z,9.462919
2023-01-11T00:49:08.256Z,9.462955
2023-01-11T00:50:08.205Z,9.462914
2023-01-11T00:51:08.221Z,9.462920
2023-01-11T00:52:08.275Z,9.462836
2023-01-11T00:53:08.314Z,9.462889
2023-01-11T00:54:08.300Z,9.462934
2023-01-11T00:55:08.239Z,9.462860
2023-01-11T00:56:08.452Z,9.462873
2023-01-11T00:57:08.597Z,9.462781
2023-01-11T00:58:08.176Z,9.462853
2023-01-11T00:59:08.377Z,9.462938
2023-01-11T01:00:08.181Z,9.462872
2023-01-11T01:01:08.271Z,9.462876
2023-01-11T01:02:08.408Z,9.462950
2023-01-11T01:03:08.144Z,9.462985
2023-01-11T01:04:08.322Z,9.462990
2023-01-11T01:05:08.132Z,9.463006
2023-01-11T01:06:08.143Z,9.462947
2023-01-11T01:07:08.560Z,9.462952
2023-01-11T01:08:08.208Z,9.463052
2023-01-11T01:09:08.534Z,9.463061
2023-01-11T01:10:08.143Z,9.462930
2023-01-11T01:11:08.093Z,9.462848
2023-01-11T01:12:08.123Z,9.462841
2023-01-11T01:13:08.440Z,9.462942
2023-01-11T01:14:08.081Z,9.463076
2023-01-11T01:15:08.031Z,9.462987
2023-01-11T01:16:08.284Z,9.462984
2023-01-11T01:17:08.068Z,9.463035
2023-01-11T01:18:08.303Z,9.463074
2023-01-11T01:19:08.183Z,9.463040
2023-01-11T01:20:08.017Z,9.462974
2023-01-11T01:21:08.110Z,9.463012
2023-01-11T01:22:08.646Z,9.462812
2023-01-11T01:23:08.365Z,9.462914
2023-01-11T01:24:08.027Z,9.463126
2023-01-11T01:25:08.036Z,9.463090
2023-01-11T01:26:08.001Z,9.463007
2023-01-11T01:27:08.013Z,9.463017
2023-01-11T01:28:08.208Z,9.463036
2023-01-11T01:29:08.022Z,9.462935
2023-01-11T01:30:07.956Z,9.463059
2023-01-11T01:31:08.100Z,9.463020
2023-01-11T01:32:07.933Z,9.462997
2023-01-11T01:33:07.977Z,9.462960
2023-01-11T01:34:07.939Z,9.462998
2023-01-11T01:35:08.050Z,9.462933
2023-01-11T01:36:08.016Z,9.462964
2023-01-11T01:37:07.976Z,9.463019
2023-01-11T01:38:07.979Z,9.463086
2023-01-11T01:39:07.989Z,9.463153
2023-01-11T01:40:07.939Z,9.462985
2023-01-11T01:41:07.984Z,9.462850
2023-01-11T01:42:07.839Z,9.462918
2023-01-11T01:43:08.045Z,9.462859
2023-01-11T01:44:08.067Z,9.462915
2023-01-11T01:45:07.941Z,9.462996
2023-01-11T01:46:07.880Z,9.462962
2023-01-11T01:47:07.839Z,9.463011
2023-01-11T01:48:07.953Z,9.463022
2023-01-11T01:49:07.860Z,9.463061
2023-01-11T01:50:07.971Z,9.463040
2023-01-11T01:51:07.891Z,9.463058
2023-01-11T01:52:08.284Z,9.463037
2023-01-11T01:53:07.915Z,9.463007
2023-01-11T01:54:07.850Z,9.463016
2023-01-11T01:55:07.907Z,9.463031
2023-01-11T01:56:07.832Z,9.463059
2023-01-11T01:57:08.020Z,9.463051
2023-01-11T01:58:07.933Z,9.463056
2023-01-11T01:59:07.903Z,9.463057
2023-01-11T02:00:07.794Z,9.463058
2023-01-11T02:01:08.330Z,9.463066
2023-01-11T02:02:08.544Z,9.463036
2023-01-11T02:03:07.914Z,9.463073
2023-01-11T02:04:07.891Z,9.463093
2023-01-11T02:05:07.719Z,9.463029
2023-01-11T02:06:07.867Z,9.463027
2023-01-11T02:07:07.864Z,9.463053
2023-01-11T02:08:08.176Z,9.463010
2023-01-11T02:09:07.690Z,9.462973
2023-01-11T02:10:07.701Z,9.463002
2023-01-11T02:11:07.696Z,9.463016
2023-01-11T02:12:07.698Z,9.462804
2023-01-11T02:13:08.001Z,9.462750
2023-01-11T02:14:07.909Z,9.463006
2023-01-11T02:15:07.703Z,9.463047
2023-01-11T02:16:08.270Z,9.463051
2023-01-11T02:17:07.757Z,9.463011
2023-01-11T02:18:07.648Z,9.462975
2023-01-11T02:19:07.775Z,9.463037
2023-01-11T02:20:07.774Z,9.463070
2023-01-11T02:21:07.636Z,9.462976
2023-01-11T02:22:07.612Z,9.463059
2023-01-11T02:23:07.668Z,9.463220
2023-01-11T02:24:07.617Z,9.463040
2023-01-11T02:25:07.853Z,9.463096
2023-01-11T02:26:07.854Z,9.463114
2023-01-11T02:27:07.608Z,9.462986
2023-01-11T02:28:07.636Z,9.462974
2023-01-11T02:29:07.560Z,9.463088
2023-01-11T02:30:07.549Z,9.463112
2023-01-11T02:31:07.651Z,9.463079
2023-01-11T02:32:07.585Z,9.463193
2023-01-11T02:33:07.562Z,9.463132
2023-01-11T02:34:07.556Z,9.463092
2023-01-11T02:35:07.594Z,9.462997
2023-01-11T02:36:07.547Z,9.463077
2023-01-11T02:37:07.944Z,9.463078
2023-01-11T02:38:07.513Z,9.463184
2023-01-11T02:39:07.497Z,9.463169
2023-01-11T02:40:07.633Z,9.463167
2023-01-11T02:41:07.916Z,9.463117
2023-01-11T02:42:07.836Z,9.463047
2023-01-11T02:43:07.487Z,9.463152
2023-01-11T02:44:07.617Z,9.463123
2023-01-11T02:45:07.560Z,9.463019
2023-01-11T02:46:07.636Z,9.462989
2023-01-11T02:47:07.491Z,9.462998
2023-01-11T02:48:07.515Z,9.463092
2023-01-11T02:49:07.459Z,9.463018
2023-01-11T02:50:07.483Z,9.463062
2023-01-11T02:51:07.497Z,9.463087
2023-01-11T02:52:07.493Z,9.463067
2023-01-11T02:53:07.612Z,9.463067
2023-01-11T02:54:07.481Z,9.463015
2023-01-11T02:55:07.423Z,9.462973
2023-01-11T02:56:07.380Z,9.462998
2023-01-11T02:57:07.495Z,9.463015
2023-01-11T02:58:07.421Z,9.462959
2023-01-11T02:59:07.483Z,9.462902
2023-01-11T03:00:07.445Z,9.462975
2023-01-11T03:01:07.835Z,9.463058
2023-01-11T03:02:07.387Z,9.463011
2023-01-11T03:03:07.434Z,9.463020
2023-01-11T03:04:07.389Z,9.463018
2023-01-11T03:05:07.545Z,9.463033
2023-01-11T03:06:07.370Z,9.462976
2023-01-11T03:07:07.315Z,9.462996
2023-01-11T03:08:07.317Z,9.462969
2023-01-11T03:09:07.360Z,9.462967
2023-01-11T03:10:07.355Z,9.462986
2023-01-11T03:11:07.306Z,9.462971
2023-01-11T03:12:07.277Z,9.462960
2023-01-11T03:13:07.295Z,9.462950
2023-01-11T03:14:07.457Z,9.462967
2023-01-11T03:15:07.343Z,9.463029
2023-01-11T03:16:07.276Z,9.462992
2023-01-11T03:17:07.356Z,9.463005
2023-01-11T03:18:07.329Z,9.462995
2023-01-11T03:19:07.260Z,9.462957
2023-01-11T03:20:07.476Z,9.462959
2023-01-11T03:21:07.241Z,9.462937
2023-01-11T03:22:07.291Z,9.462968
2023-01-11T03:23:07.205Z,9.463008
2023-01-11T03:24:07.406Z,9.462966
2023-01-11T03:25:07.194Z,9.462993
2023-01-11T03:26:07.311Z,9.463036
2023-01-11T03:27:07.264Z,9.463040
2023-01-11T03:28:07.226Z,9.463022
2023-01-11T03:29:07.356Z,9.463019
2023-01-11T03:30:07.196Z,9.462972
2023-01-11T03:31:07.323Z,9.462964
2023-01-11T03:32:07.173Z,9.462963
2023-01-11T03:33:07.110Z,9.462932
2023-01-11T03:34:07.159Z,9.462980
2023-01-11T03:35:07.112Z,9.462902
2023-01-11T03:36:07.158Z,9.462969
2023-01-11T03:37:07.361Z,9.462931
2023-01-11T03:38:07.251Z,9.462964
2023-01-11T03:39:07.176Z,9.462972
2023-01-11T03:40:07.127Z,9.462959
2023-01-11T03:41:07.088Z,9.462992
2023-01-11T03:42:07.209Z,9.463095
2023-01-11T03:43:07.164Z,9.463021
2023-01-11T03:44:07.566Z,9.463030
2023-01-11T03:45:07.114Z,9.462942
2023-01-11T03:46:07.117Z,9.462938
2023-01-11T03:47:07.118Z,9.463030
2023-01-11T03:48:07.223Z,9.463049
2023-01-11T03:49:07.261Z,9.463035
2023-01-11T03:50:07.063Z,9.463014
2023-01-11T03:51:07.200Z,9.462996
2023-01-11T03:52:07.088Z,9.463005
2023-01-11T03:53:07.083Z,9.462974
2023-01-11T03:54:06.999Z,9.462957
2023-01-11T03:55:07.100Z,9.462993
2023-01-11T03:56:07.075Z,9.462918
2023-01-11T03:57:07.000Z,9.462976
2023-01-11T03:58:07.047Z,9.462977
2023-01-11T03:59:07.065Z,9.463032
2023-01-11T04:00:06.969Z,9.463103
2023-01-11T04:01:07.001Z,9.462985
2023-01-11T04:02:06.962Z,9.462932
2023-01-11T04:03:07.856Z,9.462863
2023-01-11T04:04:07.012Z,9.462983
2023-01-11T04:05:06.952Z,9.462960
2023-01-11T04:06:07.401Z,9.463013
2023-01-11T04:07:06.950Z,9.462890
2023-01-11T04:08:07.286Z,9.462892
2023-01-11T04:09:06.905Z,9.463015
2023-01-11T04:10:06.930Z,9.463031
2023-01-11T04:11:06.954Z,9.463010
2023-01-11T04:12:06.895Z,9.462952
2023-01-11T04:13:07.843Z,9.462855
2023-01-11T04:14:07.150Z,9.463018
2023-01-11T04:15:06.880Z,9.463029
2023-01-11T04:16:06.933Z,9.462963
2023-01-11T04:17:06.857Z,9.463047
2023-01-11T04:18:07.004Z,9.463030
2023-01-11T04:19:07.259Z,9.463057
2023-01-11T04:20:06.852Z,9.463036
2023-01-11T04:21:07.057Z,9.462989
2023-01-11T04:22:06.840Z,9.463078
2023-01-11T04:23:07.097Z,9.463161
2023-01-11T04:24:06.957Z,9.463073
2023-01-11T04:25:06.833Z,9.462995
2023-01-11T04:26:06.821Z,9.462955
2023-01-11T04:27:06.850Z,9.463102
2023-01-11T04:28:06.921Z,9.463111
2023-01-11T04:29:06.802Z,9.463054
2023-01-11T04:30:06.798Z,9.463001
2023-01-11T04:31:06.885Z,9.462948
2023-01-11T04:32:06.796Z,9.463018
2023-01-11T04:33:06.780Z,9.462959
2023-01-11T04:34:06.759Z,9.462951
2023-01-11T04:35:06.749Z,9.462955
2023-01-11T04:36:06.819Z,9.462999
2023-01-11T04:37:06.747Z,9.463096
2023-01-11T04:38:06.771Z,9.463056
2023-01-11T04:39:06.776Z,9.462881
2023-01-11T04:40:06.719Z,9.462997
2023-01-11T04:41:06.690Z,9.462955
2023-01-11T04:42:07.567Z,9.462991
2023-01-11T04:43:06.816Z,9.462944
2023-01-11T04:44:06.762Z,9.463043
2023-01-11T04:45:06.706Z,9.463076
2023-01-11T04:46:07.036Z,9.463011
2023-01-11T04:47:06.825Z,9.462979
2023-01-11T04:48:06.725Z,9.462976
2023-01-11T04:49:06.667Z,9.463026
2023-01-11T04:50:07.140Z,9.462990
2023-01-11T04:51:06.788Z,9.462927
2023-01-11T04:52:06.850Z,9.463065
2023-01-11T04:53:06.656Z,9.463010
2023-01-11T04:54:07.026Z,9.463067
2023-01-11T04:55:06.856Z,9.462889
2023-01-11T04:56:06.651Z,9.462751
2023-01-11T04:57:06.599Z,9.462932
2023-01-11T04:58:07.071Z,9.463075
2023-01-11T04:59:06.720Z,9.463000
2023-01-11T05:00:07.094Z,9.463088
2023-01-11T05:01:06.671Z,9.463025
2023-01-11T05:02:06.590Z,9.462943
2023-01-11T05:03:06.916Z,9.462917
2023-01-11T05:04:06.737Z,9.462984
2023-01-11T05:05:06.545Z,9.463053
2023-01-11T05:06:06.612Z,9.462946
2023-01-11T05:07:06.665Z,9.463049
2023-01-11T05:08:06.859Z,9.463074
2023-01-11T05:09:06.598Z,9.463045
2023-01-11T05:10:06.540Z,9.462883
2023-01-11T05:11:06.615Z,9.462899
2023-01-11T05:12:06.618Z,9.462879
2023-01-11T05:13:06.577Z,9.462852
2023-01-11T05:14:06.563Z,9.462786
2023-01-11T05:15:06.503Z,9.462861
2023-01-11T05:16:06.545Z,9.462696
2023-01-11T05:17:06.513Z,9.462884
2023-01-11T05:18:06.678Z,9.463040
2023-01-11T05:19:06.482Z,9.463176
2023-01-11T05:20:06.523Z,9.462986
2023-01-11T05:21:06.966Z,9.463008
2023-01-11T05:22:06.577Z,9.462820
2023-01-11T05:23:06.455Z,9.462579
2023-01-11T05:24:06.521Z,9.462651
2023-01-11T05:25:06.772Z,9.462832
2023-01-11T05:26:06.434Z,9.462680
2023-01-11T05:27:06.424Z,9.462950
2023-01-11T05:28:06.468Z,9.463060
2023-01-11T05:29:06.567Z,9.462895
2023-01-11T05:30:06.541Z,9.462975
2023-01-11T05:31:06.385Z,9.463071
2023-01-11T05:32:06.438Z,9.463036
2023-01-11T05:33:06.396Z,9.462947
2023-01-11T05:34:06.468Z,9.462841
2023-01-11T05:35:06.374Z,9.462819
2023-01-11T05:36:06.369Z,9.462658
2023-01-11T05:37:06.724Z,9.462599
2023-01-11T05:38:06.362Z,9.462774
2023-01-11T05:39:06.366Z,9.462884
2023-01-11T05:40:06.453Z,9.463035
2023-01-11T05:41:06.342Z,9.463193
2023-01-11T05:42:06.532Z,9.463124
2023-01-11T05:43:06.345Z,9.462965
2023-01-11T05:44:06.357Z,9.462848
2023-01-11T05:45:06.484Z,9.462912
2023-01-11T05:46:06.388Z,9.462880
2023-01-11T05:47:06.346Z,9.462994
2023-01-11T05:48:06.371Z,9.463015
2023-01-11T05:49:06.268Z,9.462996
2023-01-11T05:50:06.242Z,9.463012
2023-01-11T05:51:06.318Z,9.462978
2023-01-11T05:52:06.308Z,9.462993
2023-01-11T05:53:06.287Z,9.462984
2023-01-11T05:54:06.352Z,9.462953
2023-01-11T05:55:06.480Z,9.463033
2023-01-11T05:56:06.263Z,9.463023
2023-01-11T05:57:06.281Z,9.462988
2023-01-11T05:58:06.266Z,9.462995
2023-01-11T05:59:06.248Z,9.462915
2023-01-11T06:00:06.241Z,9.462983
2023-01-11T06:01:06.221Z,9.462993
2023-01-11T06:02:06.332Z,9.462996
2023-01-11T06:03:06.317Z,9.463001
2023-01-11T06:04:06.347Z,9.462985
2023-01-11T06:05:06.251Z,9.462885
2023-01-11T06:06:06.164Z,9.462974
2023-01-11T06:07:06.175Z,9.463010
2023-01-11T06:08:06.191Z,9.462980
2023-01-11T06:09:06.309Z,9.462972
2023-01-11T06:10:06.124Z,9.462963
2023-01-11T06:11:06.263Z,9.462931
2023-01-11T06:12:06.202Z,9.462956
2023-01-11T06:13:06.191Z,9.462931
2023-01-11T06:14:06.215Z,9.462996
2023-01-11T06:15:06.142Z,9.462984
2023-01-11T06:16:06.156Z,9.462955
2023-01-11T06:17:06.699Z,9.462941
2023-01-11T06:18:06.400Z,9.462975
2023-01-11T06:19:06.282Z,9.462967
2023-01-11T06:20:06.124Z,9.462942
2023-01-11T06:21:06.085Z,9.462931
2023-01-11T06:22:06.638Z,9.462948
2023-01-11T06:23:06.060Z,9.462956
2023-01-11T06:24:06.273Z,9.462974
2023-01-11T06:25:06.028Z,9.463028
2023-01-11T06:26:06.064Z,9.463120
2023-01-11T06:27:06.176Z,9.463186
2023-01-11T06:28:06.202Z,9.463052
2023-01-11T06:29:06.023Z,9.463002
2023-01-11T06:30:06.067Z,9.463064
2023-01-11T06:31:06.199Z,9.462987
2023-01-11T06:32:06.036Z,9.462975
2023-01-11T06:33:05.980Z,9.463062
2023-01-11T06:34:06.198Z,9.463020
2023-01-11T06:35:06.023Z,9.462991
2023-01-11T06:36:06.002Z,9.462996
2023-01-11T06:37:05.960Z,9.463038
2023-01-11T06:38:06.068Z,9.463012
2023-01-11T06:39:06.461Z,9.463015
2023-01-11T06:40:05.953Z,9.463009
2023-01-11T06:41:06.431Z,9.462998
2023-01-11T06:42:06.038Z,9.462954
2023-01-11T06:43:05.931Z,9.463008
2023-01-11T06:44:06.005Z,9.463017
2023-01-11T06:45:06.160Z,9.462996
2023-01-11T06:46:06.147Z,9.463041
2023-01-11T06:47:06.119Z,9.463002
2023-01-11T06:48:05.928Z,9.462993
2023-01-11T06:49:06.017Z,9.463043
2023-01-11T06:50:05.986Z,9.463073
2023-01-11T06:51:05.995Z,9.463040
2023-01-11T06:52:05.953Z,9.462979
2023-01-11T06:53:05.871Z,9.462905
2023-01-11T06:54:05.892Z,9.462878
2023-01-11T06:55:05.898Z,9.462908
2023-01-11T06:56:05.969Z,9.462976
2023-01-11T06:57:06.379Z,9.462993
2023-01-11T06:58:06.141Z,9.462984
2023-01-11T06:59:06.179Z,9.462978
2023-01-11T07:00:06.396Z,9.463063
2023-01-11T07:01:05.968Z,9.462997
2023-01-11T07:02:05.877Z,9.462955
2023-01-11T07:03:05.819Z,9.463032
2023-01-11T07:04:05.838Z,9.462974
2023-01-11T07:05:05.901Z,9.462952
2023-01-11T07:06:05.877Z,9.463016
2023-01-11T07:07:06.220Z,9.462921
2023-01-11T07:08:05.806Z,9.462946
2023-01-11T07:09:05.805Z,9.463013
2023-01-11T07:10:05.986Z,9.463017
2023-01-11T07:11:05.987Z,9.463058
2023-01-11T07:12:05.775Z,9.463046
2023-01-11T07:13:05.807Z,9.462961
2023-01-11T07:14:05.890Z,9.462891
2023-01-11T07:15:06.018Z,9.462961
2023-01-11T07:16:05.759Z,9.462952
2023-01-11T07:17:05.743Z,9.462915
2023-01-11T07:18:05.729Z,9.462893
2023-01-11T07:19:05.838Z,9.462809
2023-01-11T07:20:05.712Z,9.462936
2023-01-11T07:21:05.736Z,9.462915
2023-01-11T07:22:05.746Z,9.462947
2023-01-11T07:23:05.694Z,9.463009
2023-01-11T07:24:05.685Z,9.462997
2023-01-11T07:25:05.658Z,9.462994
2023-01-11T07:26:06.267Z,9.462991
2023-01-11T07:27:05.681Z,9.462965
2023-01-11T07:28:05.656Z,9.462913
2023-01-11T07:29:05.853Z,9.462765
2023-01-11T07:30:05.644Z,9.462798
2023-01-11T07:31:05.991Z,9.462835
2023-01-11T07:32:05.653Z,9.462984
2023-01-11T07:33:05.777Z,9.462978
2023-01-11T07:34:05.726Z,9.463010
2023-01-11T07:35:05.639Z,9.463047
2023-01-11T07:36:05.647Z,9.463020
2023-01-11T07:37:05.616Z,9.462872
2023-01-11T07:38:05.625Z,9.462859
2023-01-11T07:39:05.728Z,9.462827
2023-01-11T07:40:05.640Z,9.463031
2023-01-11T07:41:05.587Z,9.463002
2023-01-11T07:42:05.627Z,9.463032
2023-01-11T07:43:05.813Z,9.462851
2023-01-11T07:44:05.570Z,9.462981
2023-01-11T07:45:05.936Z,9.463033
2023-01-11T07:46:05.706Z,9.463007
2023-01-11T07:47:05.569Z,9.463018
2023-01-11T07:48:05.537Z,9.463039
2023-01-11T07:49:05.579Z,9.463081
2023-01-11T07:50:05.525Z,9.463100
2023-01-11T07:51:05.511Z,9.463048
2023-01-11T07:52:05.531Z,9.462981
2023-01-11T07:53:12.605Z,9.462897
2023-01-11T07:54:05.471Z,9.462982
2023-01-11T07:55:05.566Z,9.463037
2023-01-11T07:56:05.629Z,9.463082
2023-01-11T07:57:05.459Z,9.463015
2023-01-11T07:58:05.477Z,9.463058
2023-01-11T07:59:05.457Z,9.463085
2023-01-11T08:00:05.517Z,9.463155
2023-01-11T08:01:05.501Z,9.463051
2023-01-11T08:02:05.570Z,9.463243
2023-01-11T08:03:05.625Z,9.463170
2023-01-11T08:04:05.429Z,9.463208
2023-01-11T08:05:05.429Z,9.463007
2023-01-11T08:06:05.453Z,9.463249
2023-01-11T08:07:05.470Z,9.463069
2023-01-11T08:08:05.480Z,9.463003
2023-01-11T08:09:05.470Z,9.463124
2023-01-11T08:10:05.437Z,9.462996
2023-01-11T08:11:05.686Z,9.463037
2023-01-11T08:12:05.471Z,9.463105
2023-01-11T08:13:05.638Z,9.462968
2023-01-11T08:14:05.464Z,9.463078
2023-01-11T08:15:05.966Z,9.462942
2023-01-11T08:16:05.532Z,9.462978
2023-01-11T08:17:05.744Z,9.463081
2023-01-11T08:18:05.351Z,9.463019
2023-01-11T08:19:05.662Z,9.463046
2023-01-11T08:20:05.319Z,9.463043
2023-01-11T08:21:05.366Z,9.463061
2023-01-11T08:22:05.508Z,9.462969
2023-01-11T08:23:05.394Z,9.462914
2023-01-11T08:24:05.411Z,9.462982
2023-01-11T08:25:05.285Z,9.462996
2023-01-11T08:26:05.395Z,9.463033
2023-01-11T08:27:05.413Z,9.463074
2023-01-11T08:28:05.771Z,9.462961
2023-01-11T08:29:05.251Z,9.462943
2023-01-11T08:30:05.298Z,9.463033
2023-01-11T08:31:05.337Z,9.462996
2023-01-11T08:32:05.279Z,9.462977
2023-01-11T08:33:05.453Z,9.462985
2023-01-11T08:34:05.361Z,9.463016
2023-01-11T08:35:05.378Z,9.462965
2023-01-11T08:36:05.390Z,9.462981
2023-01-11T08:37:05.483Z,9.462978
2023-01-11T08:38:05.307Z,9.463014
2023-01-11T08:39:05.289Z,9.462989
2023-01-11T08:40:05.234Z,9.463010
2023-01-11T08:41:05.243Z,9.462998
2023-01-11T08:42:05.378Z,9.462971
2023-01-11T08:43:05.181Z,9.462957
2023-01-11T08:44:05.199Z,9.462950
2023-01-11T08:45:05.183Z,9.462988
2023-01-11T08:46:05.554Z,9.463039
2023-01-11T08:47:05.212Z,9.463043
2023-01-11T08:48:05.172Z,9.463044
2023-01-11T08:49:05.157Z,9.462981
2023-01-11T08:50:05.152Z,9.463035
2023-01-11T08:51:05.168Z,9.463083
2023-01-11T08:52:05.171Z,9.463017
2023-01-11T08:53:05.108Z,9.462997
2023-01-11T08:54:05.177Z,9.463020
2023-01-11T08:55:05.139Z,9.462990
2023-01-11T08:56:05.095Z,9.462994
2023-01-11T08:57:05.084Z,9.463053
2023-01-11T08:58:05.104Z,9.463048
2023-01-11T08:59:05.117Z,9.462999
2023-01-11T09:00:05.136Z,9.463023
2023-01-11T09:01:05.062Z,9.463591
2023-01-11T09:02:05.061Z,9.463609
2023-01-11T09:03:05.427Z,9.463593
2023-01-11T09:04:15.794Z,9.463675
2023-01-11T09:05:06.542Z,9.463555
2023-01-11T09:06:05.126Z,9.463305
2023-01-11T09:07:05.103Z,9.463233
2023-01-11T09:08:05.108Z,9.463123
2023-01-11T09:09:05.007Z,9.463102
2023-01-11T09:10:05.182Z,9.463077
2023-01-11T09:11:05.027Z,9.463193
2023-01-11T09:12:05.900Z,9.463103
2023-01-11T09:13:05.040Z,9.463067
2023-01-11T09:14:05.077Z,9.463036
2023-01-11T09:15:05.036Z,9.463070
2023-01-11T09:16:05.088Z,9.463113
2023-01-11T09:17:04.974Z,9.463097
2023-01-11T09:18:05.032Z,9.463190
2023-01-11T09:19:04.954Z,9.463092
2023-01-11T09:20:05.236Z,9.463067
2023-01-11T09:21:05.004Z,9.463238
2023-01-11T09:22:05.051Z,9.463262
2023-01-11T09:23:04.970Z,9.463112
2023-01-11T09:24:04.916Z,9.463124
2023-01-11T09:25:05.208Z,9.463174
2023-01-11T09:26:04.945Z,9.463127
2023-01-11T09:27:05.056Z,9.463088
2023-01-11T09:28:04.984Z,9.463094
2023-01-11T09:29:05.112Z,9.463102
2023-01-11T09:30:05.598Z,9.463079
2023-01-11T09:31:04.942Z,9.463145
2023-01-11T09:32:04.907Z,9.463121
2023-01-11T09:33:04.979Z,9.463067
2023-01-11T09:34:04.949Z,9.463223
2023-01-11T09:35:04.891Z,9.463214
2023-01-11T09:36:04.920Z,9.463301
2023-01-11T09:37:04.874Z,9.462974
2023-01-11T09:38:04.877Z,9.462955
2023-01-11T09:39:04.839Z,9.463184
2023-01-11T09:40:04.990Z,9.463248
2023-01-11T09:41:04.842Z,9.463232
2023-01-11T09:42:05.228Z,9.463204
2023-01-11T09:43:04.836Z,9.463093
2023-01-11T09:44:04.931Z,9.463157
2023-01-11T09:45:04.836Z,9.463089
2023-01-11T09:46:07.360Z,9.463072
2023-01-11T09:47:05.180Z,9.463158
2023-01-11T09:48:04.804Z,9.463097
2023-01-11T09:49:04.775Z,9.463133
2023-01-11T09:50:04.757Z,9.463124
2023-01-11T09:51:04.858Z,9.463137
2023-01-11T09:52:04.758Z,9.463105
2023-01-11T09:53:04.775Z,9.463084
2023-01-11T09:54:04.839Z,9.463010
2023-01-11T09:55:04.736Z,9.463122
2023-01-11T09:56:04.788Z,9.463080
2023-01-11T09:57:04.803Z,9.463107
2023-01-11T09:58:04.741Z,9.463064
2023-01-11T09:59:04.873Z,9.462975
2023-01-11T10:00:04.746Z,9.462922
2023-01-11T10:01:04.779Z,9.463046
2023-01-11T10:02:05.223Z,9.463018
2023-01-11T10:03:04.666Z,9.462897
2023-01-11T10:04:04.713Z,9.462924
2023-01-11T10:05:04.799Z,9.463067
2023-01-11T10:06:04.664Z,9.462960
2023-01-11T10:07:04.673Z,9.463095
2023-01-11T10:18:22.291Z,9.463496
2023-01-11T10:18:31.356Z,9.463273
2023-01-11T10:18:31.764Z,9.463220
2023-01-11T10:18:34.072Z,9.463045
2023-01-11T10:18:40.118Z,9.463320
2023-01-11T10:19:33.305Z,9.463022
2023-01-11T10:20:05.723Z,9.463107
2023-01-11T10:21:04.543Z,9.462929
2023-01-11T10:22:04.627Z,9.462827
2023-01-11T10:23:04.603Z,9.463059
2023-01-11T10:24:04.535Z,9.462939
2023-01-11T10:25:04.581Z,9.463073
2023-01-11T10:26:04.506Z,9.463059
2023-01-11T10:27:04.632Z,9.462848
2023-01-11T10:28:04.565Z,9.462761
2023-01-11T10:29:04.570Z,9.463096
2023-01-11T10:30:04.668Z,9.462873
2023-01-11T10:31:04.537Z,9.462717
2023-01-11T10:32:04.505Z,9.462743
2023-01-11T10:33:04.459Z,9.462780
2023-01-11T10:34:04.430Z,9.462757
2023-01-11T10:35:04.518Z,9.462894
2023-01-11T10:36:04.471Z,9.462921
2023-01-11T10:37:04.624Z,9.462999
2023-01-11T10:38:04.420Z,9.462978
2023-01-11T10:39:04.443Z,9.462981
2023-01-11T10:40:04.557Z,9.462968
2023-01-11T10:41:04.484Z,9.463074
2023-01-11T10:42:04.580Z,9.463104
2023-01-11T10:43:04.391Z,9.463057
2023-01-11T10:44:04.385Z,9.463101
2023-01-11T10:45:04.410Z,9.463042
2023-01-11T10:46:04.520Z,9.463083
2023-01-11T10:47:04.566Z,9.463050
2023-01-11T10:48:04.411Z,9.463029
2023-01-11T10:49:04.401Z,9.463114
2023-01-11T10:50:06.236Z,9.463031
2023-01-11T10:51:04.358Z,9.463048
2023-01-11T10:52:04.297Z,9.463097
2023-01-11T10:53:04.447Z,9.463055
2023-01-11T10:55:04.316Z,9.462951
2023-01-11T10:56:04.318Z,9.462934
2023-01-11T10:57:05.698Z,9.462929
2023-01-11T10:58:04.565Z,9.463017
2023-01-11T10:59:04.330Z,9.463038
2023-01-11T11:00:04.295Z,9.462939
2023-01-11T11:01:04.313Z,9.462921
2023-01-11T11:02:04.365Z,9.462948
2023-01-11T11:03:04.239Z,9.462836
2023-01-11T11:04:04.342Z,9.462823
2023-01-11T11:05:04.298Z,9.462912
2023-01-11T11:06:04.273Z,9.462862
2023-01-11T11:07:04.297Z,9.462847
2023-01-11T11:08:04.284Z,9.462862
2023-01-11T11:09:04.270Z,9.462897
2023-01-11T11:10:04.274Z,9.462805
2023-01-11T11:11:04.375Z,9.462817
2023-01-11T11:12:04.216Z,9.462757
2023-01-11T11:13:04.203Z,9.462760
2023-01-11T11:14:04.198Z,9.462895
2023-01-11T11:15:04.166Z,9.462836
2023-01-11T11:16:04.374Z,9.462883
2023-01-11T11:17:04.250Z,9.462937
2023-01-11T11:18:04.159Z,9.462949
2023-01-11T11:19:04.186Z,9.462917
2023-01-11T11:20:04.228Z,9.462869
2023-01-11T11:21:04.124Z,9.462919
2023-01-11T11:22:04.161Z,9.462922
2023-01-11T11:23:04.132Z,9.462908
2023-01-11T11:24:04.221Z,9.462848
2023-01-11T11:25:04.076Z,9.462813
2023-01-11T11:26:04.236Z,9.462903
2023-01-11T11:27:04.310Z,9.462909
2023-01-11T11:28:04.124Z,9.462882
2023-01-11T11:29:04.114Z,9.462868
2023-01-11T11:30:04.085Z,9.462809
2023-01-11T11:31:04.144Z,9.462845
2023-01-11T11:32:04.113Z,9.462801
2023-01-11T11:33:04.032Z,9.462836
2023-01-11T11:34:04.063Z,9.462814
2023-01-11T11:35:04.059Z,9.462855
2023-01-11T11:36:04.126Z,9.462882
2023-01-11T11:37:04.162Z,9.463005
2023-01-11T11:38:04.044Z,9.462984
2023-01-11T11:39:04.063Z,9.462998
2023-01-11T11:40:04.058Z,9.462955
2023-01-11T11:41:04.020Z,9.463030
2023-01-11T11:42:03.998Z,9.463007
2023-01-11T11:43:03.996Z,9.462969
2023-01-11T11:44:03.965Z,9.462966
2023-01-11T11:45:03.941Z,9.462973
2023-01-11T11:46:04.542Z,9.462965
2023-01-11T11:47:03.955Z,9.462977
2023-01-11T11:48:03.960Z,9.463029
2023-01-11T11:49:03.964Z,9.463040
2023-01-11T11:50:05.040Z,9.462972
2023-01-11T11:51:03.917Z,9.462936